Time;durP1;ratioP1;P1;durP2;ratioP2;P2;SDS_P1;SDS_P2;PMS_P1;PMS_P2;Temp;Humidity;BMP_temperature;BMP_pressure;BME280_temperature;BME280_humidity;BME280_pressure;Samples;Min_cycle;Max_cycle;Signal;HPM_P1;HPM_P2
2022/07/13 00:01:39;;;;;;;5.05;4.50;;;22.30;99.90;;;;;;4967133;28;20204;-82
2022/07/13 00:04:08;;;;;;;5.90;4.60;;;22.40;99.90;;;;;;4965516;28;20209;-82
2022/07/13 00:06:36;;;;;;;5.90;5.07;;;22.60;99.90;;;;;;4970866;28;20575;-82
2022/07/13 00:09:04;;;;;;;6.28;4.53;;;22.60;99.90;;;;;;4981040;28;20204;-82
2022/07/13 00:11:32;;;;;;;5.07;4.53;;;22.50;99.90;;;;;;4961980;28;20208;-82
2022/07/13 00:14:02;;;;;;;5.05;4.50;;;22.40;99.90;;;;;;4973620;28;20207;-82
2022/07/13 00:16:29;;;;;;;4.95;4.30;;;22.40;99.90;;;;;;4965122;28;20698;-82
2022/07/13 00:18:57;;;;;;;4.47;4.07;;;22.40;99.90;;;;;;4964998;28;20204;-82
2022/07/13 00:21:26;;;;;;;4.57;3.97;;;22.50;99.90;;;;;;4981291;28;20200;-82
2022/07/13 00:23:53;;;;;;;4.70;4.30;;;22.50;99.90;;;;;;4964054;28;20204;-82
2022/07/13 00:26:21;;;;;;;4.60;4.18;;;22.60;99.90;;;;;;4969464;28;20223;-82
2022/07/13 00:28:48;;;;;;;5.28;4.78;;;22.60;99.90;;;;;;4964989;28;20208;-82
2022/07/13 00:31:16;;;;;;;5.55;4.28;;;22.50;99.90;;;;;;4969893;28;20212;-82
2022/07/13 00:33:43;;;;;;;6.30;4.22;;;22.40;99.90;;;;;;4964430;28;20209;-82
2022/07/13 00:36:11;;;;;;;5.07;4.68;;;22.50;99.90;;;;;;4981455;28;20224;-82
2022/07/13 00:38:40;;;;;;;4.70;4.25;;;22.60;99.90;;;;;;4945990;29;20202;-82
2022/07/13 00:41:07;;;;;;;4.50;4.10;;;22.50;99.90;;;;;;4956181;28;20209;-82
2022/07/13 00:43:35;;;;;;;4.38;3.97;;;22.40;99.90;;;;;;4959569;29;20202;-82
2022/07/13 00:46:03;;;;;;;4.88;3.88;;;22.60;99.90;;;;;;4954265;28;20229;-82
2022/07/13 00:48:31;;;;;;;4.63;3.80;;;22.50;99.90;;;;;;4973481;28;20205;-82
2022/07/13 00:50:59;;;;;;;4.90;4.10;;;22.70;99.90;;;;;;4963058;28;20208;-82
2022/07/13 00:53:26;;;;;;;4.70;4.22;;;22.60;99.90;;;;;;4963175;28;20587;-82
2022/07/13 00:55:57;;;;;;;4.63;4.00;;;22.40;99.90;;;;;;4979218;28;20715;-82
2022/07/13 00:58:25;;;;;;;4.72;4.32;;;22.30;99.90;;;;;;4963516;28;20209;-82
2022/07/13 01:00:52;;;;;;;6.90;4.60;;;22.30;99.90;;;;;;4981994;28;20204;-82
2022/07/13 01:03:20;;;;;;;7.32;4.53;;;22.20;99.90;;;;;;4965768;28;20208;-82
2022/07/13 01:05:48;;;;;;;6.07;4.60;;;22.20;99.90;;;;;;4963078;28;20221;-83
2022/07/13 01:08:16;;;;;;;6.20;5.35;;;22.20;99.90;;;;;;4978983;28;20221;-82
2022/07/13 01:10:44;;;;;;;6.28;4.88;;;22.00;99.90;;;;;;4979030;28;20224;-82
2022/07/13 01:13:15;;;;;;;6.07;5.53;;;22.00;99.90;;;;;;4962820;28;20197;-82
2022/07/13 01:15:43;;;;;;;6.68;5.97;;;22.00;99.90;;;;;;4985948;28;20225;-82
2022/07/13 01:18:12;;;;;;;7.25;5.97;;;21.80;99.90;;;;;;4963350;28;20865;-82
2022/07/13 01:20:40;;;;;;;6.07;5.47;;;21.70;99.90;;;;;;4978476;28;20201;-82
2022/07/13 01:23:11;;;;;;;6.93;6.07;;;21.70;99.90;;;;;;4980351;28;20208;-81
2022/07/13 01:25:39;;;;;;;6.20;5.63;;;21.40;99.90;;;;;;4961358;28;20216;-81
2022/07/13 01:28:08;;;;;;;6.10;5.60;;;21.40;99.90;;;;;;4963041;28;20231;-83
2022/07/13 01:30:36;;;;;;;6.95;6.22;;;21.60;99.90;;;;;;4959202;28;20216;-82
2022/07/13 01:33:03;;;;;;;6.13;5.45;;;21.40;99.90;;;;;;4970138;28;20213;-83
2022/07/13 01:35:31;;;;;;;6.53;5.93;;;21.40;99.90;;;;;;4963475;28;20212;-82
2022/07/13 01:37:59;;;;;;;6.38;5.75;;;21.40;99.90;;;;;;4962818;28;20201;-82
2022/07/13 01:40:28;;;;;;;7.30;5.57;;;21.30;99.90;;;;;;4970943;28;20672;-83
2022/07/13 01:42:57;;;;;;;7.95;5.97;;;21.50;99.90;;;;;;4963275;28;20193;-82
2022/07/13 01:45:25;;;;;;;6.25;5.68;;;21.40;99.90;;;;;;4944369;28;20668;-82
2022/07/13 01:47:55;;;;;;;6.82;6.10;;;21.10;99.90;;;;;;4963011;28;20232;-81
2022/07/13 01:50:27;;;;;;;8.15;5.75;;;20.80;99.90;;;;;;4955488;28;20200;-82
2022/07/13 01:52:55;;;;;;;5.32;4.82;;;20.70;99.90;;;;;;4962099;28;20205;-82
2022/07/13 01:55:22;;;;;;;6.63;5.63;;;20.60;99.90;;;;;;4955259;28;20206;-82
2022/07/13 01:57:57;;;;;;;6.82;6.20;;;20.80;99.90;;;;;;4945576;28;20197;-82
2022/07/13 02:00:25;;;;;;;6.28;5.68;;;20.90;99.90;;;;;;4948187;28;20209;-82
2022/07/13 02:02:52;;;;;;;7.40;6.38;;;20.90;99.90;;;;;;4975649;28;20193;-81
2022/07/13 02:05:26;;;;;;;7.20;5.93;;;21.00;99.90;;;;;;4950772;28;20203;-82
2022/07/13 02:07:54;;;;;;;8.13;6.13;;;20.90;99.90;;;;;;4961654;28;20205;-82
2022/07/13 02:10:34;;;;;;;6.78;6.10;;;21.00;99.90;;;;;;4957672;28;20201;-82
2022/07/13 02:13:04;;;;;;;6.72;5.88;;;21.00;99.90;;;;;;4960596;28;20204;-82
2022/07/13 02:15:32;;;;;;;6.72;6.05;;;20.80;99.90;;;;;;4961643;28;20596;-82
2022/07/13 02:18:00;;;;;;;6.05;5.10;;;20.50;99.90;;;;;;4961039;28;20193;-82
2022/07/13 02:20:27;;;;;;;6.10;5.50;;;20.40;99.90;;;;;;4959893;28;20216;-85
2022/07/13 02:22:55;;;;;;;7.35;6.00;;;20.70;99.90;;;;;;4958849;28;20201;-83
2022/07/13 02:25:22;;;;;;;7.00;6.30;;;20.90;99.90;;;;;;4959424;28;20212;-83
2022/07/13 02:27:50;;;;;;;5.93;5.43;;;20.80;99.90;;;;;;4950167;28;20221;-82
2022/07/13 02:30:19;;;;;;;6.43;5.35;;;20.80;99.90;;;;;;4958694;28;20205;-82
2022/07/13 02:32:47;;;;;;;7.20;5.70;;;20.90;99.90;;;;;;4958308;28;20678;-83
2022/07/13 02:35:15;;;;;;;7.35;5.25;;;21.00;99.90;;;;;;4967286;28;20209;-83
2022/07/13 02:37:43;;;;;;;5.88;5.28;;;21.00;99.90;;;;;;4977312;28;20193;-82
2022/07/13 02:40:12;;;;;;;5.68;5.18;;;20.90;99.90;;;;;;4964609;28;20209;-82
2022/07/13 02:42:40;;;;;;;5.95;5.30;;;20.90;99.90;;;;;;4964906;28;20212;-82
2022/07/13 02:45:09;;;;;;;6.07;5.25;;;20.80;99.90;;;;;;4948897;28;20197;-82
2022/07/13 02:47:37;;;;;;;5.57;5.10;;;20.80;99.90;;;;;;4978690;28;20217;-82
2022/07/13 02:50:06;;;;;;;6.40;5.28;;;20.80;99.90;;;;;;4975622;28;20216;-83
2022/07/13 02:52:33;;;;;;;5.25;4.75;;;20.90;99.90;;;;;;4982708;28;20181;-81
2022/07/13 02:55:01;;;;;;;5.88;5.38;;;20.90;99.90;;;;;;4991753;28;20204;-82
2022/07/13 02:57:29;;;;;;;6.03;5.50;;;20.90;99.90;;;;;;4982498;28;20221;-82
2022/07/13 02:59:59;;;;;;;7.55;6.38;;;21.00;99.90;;;;;;4974144;28;20212;-83
2022/07/13 03:02:28;;;;;;;6.30;5.30;;;21.10;99.90;;;;;;4962364;28;20197;-82
2022/07/13 03:04:57;;;;;;;5.38;4.88;;;21.10;99.90;;;;;;4957665;28;20201;-82
2022/07/13 03:07:25;;;;;;;5.38;4.90;;;21.00;99.90;;;;;;4981919;28;20232;-82
2022/07/13 03:09:53;;;;;;;5.60;4.80;;;20.90;99.90;;;;;;4961077;28;20197;-82
2022/07/13 03:12:21;;;;;;;5.95;4.70;;;21.00;99.90;;;;;;4981285;28;20205;-82
2022/07/13 03:14:49;;;;;;;4.90;4.50;;;21.00;99.90;;;;;;4962777;28;20201;-82
2022/07/13 03:17:17;;;;;;;5.43;4.90;;;21.20;99.90;;;;;;4961479;28;20232;-82
2022/07/13 03:19:45;;;;;;;4.35;3.53;;;21.10;99.90;;;;;;4971139;28;20197;-82
2022/07/13 03:22:14;;;;;;;4.15;3.75;;;21.10;99.90;;;;;;4959030;28;20201;-82
2022/07/13 03:24:41;;;;;;;5.38;4.15;;;20.90;99.90;;;;;;4944226;28;20201;-82
2022/07/13 03:27:09;;;;;;;4.80;4.25;;;20.90;99.90;;;;;;4970944;28;20221;-81
2022/07/13 03:29:37;;;;;;;4.90;4.07;;;21.20;99.90;;;;;;4976086;28;20283;-82
2022/07/13 03:32:05;;;;;;;4.47;4.07;;;21.50;99.90;;;;;;4962235;28;20217;-81
2022/07/13 03:34:33;;;;;;;4.85;4.35;;;21.60;99.90;;;;;;4965838;28;20197;-82
2022/07/13 03:37:01;;;;;;;5.65;4.07;;;21.80;99.90;;;;;;4971777;28;20238;-82
2022/07/13 03:39:30;;;;;;;4.38;3.97;;;21.80;99.90;;;;;;4966454;28;20197;-82
2022/07/13 03:41:59;;;;;;;4.38;4.03;;;21.80;99.90;;;;;;4973708;28;20212;-82
2022/07/13 03:44:27;;;;;;;4.53;4.13;;;21.90;99.90;;;;;;4969008;28;20208;-83
2022/07/13 03:46:55;;;;;;;4.80;4.40;;;21.80;99.90;;;;;;4965686;28;20212;-82
2022/07/13 03:49:23;;;;;;;4.75;3.92;;;21.80;99.90;;;;;;4956951;28;20229;-82
2022/07/13 03:51:50;;;;;;;4.57;3.85;;;21.80;99.90;;;;;;4980288;28;20213;-82
2022/07/13 03:54:19;;;;;;;5.95;4.30;;;21.80;99.90;;;;;;4981313;28;20197;-83
2022/07/13 03:56:48;;;;;;;4.82;4.00;;;21.80;99.90;;;;;;4982924;28;20236;-82
2022/07/13 03:59:15;;;;;;;4.80;4.30;;;21.80;99.90;;;;;;4978542;28;20198;-82
2022/07/13 04:01:44;;;;;;;4.25;3.85;;;21.80;99.90;;;;;;4969627;28;20204;-84
2022/07/13 04:04:11;;;;;;;5.47;3.70;;;21.80;99.90;;;;;;4987376;28;20567;-85
2022/07/13 04:06:42;;;;;;;4.55;3.75;;;21.90;99.90;;;;;;4976419;28;20229;-84
2022/07/13 04:09:12;;;;;;;4.13;3.83;;;22.00;99.90;;;;;;4991125;28;20204;-84
2022/07/13 04:11:40;;;;;;;4.47;4.00;;;22.00;99.90;;;;;;4967664;28;20205;-84
2022/07/13 04:14:09;;;;;;;5.18;4.05;;;22.00;99.90;;;;;;4993326;28;20554;-84
2022/07/13 04:16:37;;;;;;;6.57;4.63;;;22.00;99.90;;;;;;4969415;28;20224;-83
2022/07/13 04:19:06;;;;;;;5.40;4.55;;;22.00;99.90;;;;;;4985829;28;20208;-84
2022/07/13 04:21:35;;;;;;;5.10;4.60;;;21.90;99.90;;;;;;4964115;28;20205;-84
2022/07/13 04:24:03;;;;;;;5.60;3.95;;;21.90;99.90;;;;;;4975646;28;20209;-84
2022/07/13 04:26:31;;;;;;;4.43;3.90;;;21.90;99.90;;;;;;4971865;28;20216;-84
2022/07/13 04:28:59;;;;;;;4.35;3.95;;;21.90;99.90;;;;;;4982075;28;20699;-84
2022/07/13 04:31:30;;;;;;;3.90;3.60;;;21.90;99.90;;;;;;4972847;28;20205;-83
2022/07/13 04:33:57;;;;;;;5.18;3.70;;;22.00;99.90;;;;;;4982929;28;20197;-83
2022/07/13 04:36:26;;;;;;;3.95;3.60;;;22.00;99.90;;;;;;4967392;28;20221;-83
2022/07/13 04:38:54;;;;;;;4.90;4.28;;;22.10;99.90;;;;;;4984016;28;20204;-84
2022/07/13 04:41:22;;;;;;;3.50;3.20;;;22.10;99.90;;;;;;4965864;28;20209;-83
2022/07/13 04:43:50;;;;;;;4.80;3.63;;;22.20;99.90;;;;;;4975187;28;20197;-83
2022/07/13 04:46:19;;;;;;;5.75;3.60;;;22.20;99.90;;;;;;4977131;28;20221;-83
2022/07/13 04:48:51;;;;;;;5.95;3.15;;;22.20;99.90;;;;;;4959425;28;20209;-83
2022/07/13 04:51:19;;;;;;;3.78;3.33;;;22.20;99.90;;;;;;4961325;28;20230;-84
2022/07/13 04:53:49;;;;;;;3.95;3.50;;;22.20;99.90;;;;;;4974632;28;20212;-83
2022/07/13 04:56:17;;;;;;;5.70;3.55;;;22.20;99.90;;;;;;4974515;28;20236;-82
2022/07/13 04:58:45;;;;;;;6.65;3.80;;;22.20;99.90;;;;;;4966617;28;20217;-84
2022/07/13 05:01:12;;;;;;;4.43;3.20;;;22.20;99.90;;;;;;4963558;28;20570;-83
2022/07/13 05:03:40;;;;;;;4.45;3.40;;;22.30;99.90;;;;;;4974921;28;20197;-87
2022/07/13 05:06:09;;;;;;;3.33;3.03;;;22.30;99.90;;;;;;4966247;28;20229;-83
2022/07/13 05:08:38;;;;;;;4.13;3.20;;;22.30;99.90;;;;;;4966254;28;20225;-83
2022/07/13 05:11:06;;;;;;;3.33;3.03;;;22.30;99.90;;;;;;4960104;28;20209;-83
2022/07/13 05:13:33;;;;;;;3.38;2.92;;;22.40;99.90;;;;;;4968289;28;20201;-83
2022/07/13 05:16:01;;;;;;;4.95;2.97;;;22.40;99.90;;;;;;4964850;28;20228;-83
2022/07/13 05:18:29;;;;;;;4.75;3.00;;;22.40;99.90;;;;;;4966700;28;20208;-84
2022/07/13 05:21:00;;;;;;;4.97;2.95;;;22.40;99.90;;;;;;4960210;28;20532;-83
2022/07/13 05:23:29;;;;;;;4.28;3.05;;;22.50;99.90;;;;;;4966338;28;20213;-83
2022/07/13 05:25:57;;;;;;;6.15;2.97;;;22.50;99.90;;;;;;4963324;28;20225;-82
2022/07/13 05:28:25;;;;;;;6.13;3.35;;;22.60;99.90;;;;;;4978047;28;20202;-83
2022/07/13 05:30:53;;;;;;;3.85;2.63;;;22.60;99.90;;;;;;4975310;28;20214;-83
2022/07/13 05:33:21;;;;;;;2.72;2.53;;;22.70;99.90;;;;;;4960485;28;20209;-84
2022/07/13 05:35:50;;;;;;;2.92;2.42;;;22.70;99.90;;;;;;4961959;28;20734;-84
2022/07/13 05:38:18;;;;;;;2.67;2.47;;;22.80;99.90;;;;;;4977871;28;20202;-84
2022/07/13 05:40:47;;;;;;;2.60;2.40;;;22.90;99.90;;;;;;4945057;29;20205;-84
2022/07/13 05:43:15;;;;;;;3.58;2.30;;;22.90;99.90;;;;;;4972657;28;20208;-83
2022/07/13 05:45:43;;;;;;;2.97;2.40;;;23.00;99.50;;;;;;4978099;28;20301;-84
2022/07/13 05:48:11;;;;;;;2.58;2.38;;;23.00;98.00;;;;;;4964179;28;20212;-84
2022/07/13 05:50:38;;;;;;;2.50;2.08;;;23.10;98.40;;;;;;4969281;28;20224;-84
2022/07/13 05:53:06;;;;;;;2.25;2.05;;;23.20;98.80;;;;;;4960954;28;20208;-84
2022/07/13 05:55:35;;;;;;;2.33;2.13;;;23.20;98.40;;;;;;4963012;28;20236;-84
2022/07/13 05:58:04;;;;;;;2.88;2.30;;;23.30;97.80;;;;;;4961334;28;20217;-84
2022/07/13 06:00:32;;;;;;;3.15;1.92;;;23.30;98.00;;;;;;4977371;28;20186;-84
2022/07/13 06:02:59;;;;;;;1.88;1.77;;;23.30;97.80;;;;;;4962314;28;20201;-84
2022/07/13 06:05:27;;;;;;;2.88;2.00;;;23.40;97.30;;;;;;4964896;28;20208;-86
2022/07/13 06:07:55;;;;;;;4.05;2.65;;;23.40;97.80;;;;;;4977131;28;20197;-84
2022/07/13 06:10:23;;;;;;;2.42;2.15;;;23.40;97.60;;;;;;4980049;28;20224;-84
2022/07/13 06:12:50;;;;;;;2.50;2.30;;;23.40;97.50;;;;;;4957293;28;20213;-84
2022/07/13 06:15:20;;;;;;;4.13;2.20;;;23.50;96.90;;;;;;4965975;28;20204;-84
2022/07/13 06:17:47;;;;;;;2.72;2.15;;;23.60;96.90;;;;;;4979047;28;20213;-84
2022/07/13 06:20:15;;;;;;;3.30;2.38;;;23.80;96.90;;;;;;4973684;28;20652;-84
2022/07/13 06:22:42;;;;;;;3.25;2.58;;;23.90;95.90;;;;;;4974865;28;20205;-84
2022/07/13 06:25:10;;;;;;;2.92;2.17;;;23.90;95.50;;;;;;4978842;28;20208;-84
2022/07/13 06:27:38;;;;;;;5.05;2.50;;;23.90;95.40;;;;;;4961918;28;20217;-83
2022/07/13 06:30:07;;;;;;;5.00;2.20;;;23.90;95.80;;;;;;4976184;28;20573;-84
2022/07/13 06:32:35;;;;;;;2.22;2.03;;;24.00;95.00;;;;;;4983778;28;20578;-84
2022/07/13 06:35:03;;;;;;;2.85;2.20;;;24.10;94.80;;;;;;4985132;28;20205;-84
2022/07/13 06:37:31;;;;;;;4.32;2.33;;;24.20;94.20;;;;;;4960653;28;20227;-84
2022/07/13 06:39:58;;;;;;;2.85;2.40;;;24.40;94.00;;;;;;4960116;28;20208;-83
2022/07/13 06:42:25;;;;;;;2.53;2.15;;;24.50;93.70;;;;;;4970115;28;20205;-83
2022/07/13 06:44:55;;;;;;;6.05;2.55;;;24.60;93.10;;;;;;4964454;28;20192;-84
2022/07/13 06:47:22;;;;;;;4.13;2.45;;;24.60;92.80;;;;;;4960064;28;20217;-84
2022/07/13 06:49:52;;;;;;;5.28;2.40;;;24.70;92.50;;;;;;4978354;28;20235;-84
2022/07/13 06:52:20;;;;;;;3.00;2.17;;;24.70;92.40;;;;;;4979307;28;20205;-83
2022/07/13 06:54:47;;;;;;;3.03;2.30;;;24.90;91.70;;;;;;4962410;28;20209;-84
2022/07/13 06:57:15;;;;;;;2.83;2.00;;;24.90;92.40;;;;;;4946728;28;20236;-84
2022/07/13 06:59:42;;;;;;;2.30;2.03;;;24.90;92.70;;;;;;4951945;28;20208;-84
2022/07/13 07:02:10;;;;;;;6.53;2.88;;;24.90;92.50;;;;;;4959620;28;20212;-84
2022/07/13 07:04:37;;;;;;;4.05;2.50;;;25.00;92.10;;;;;;4962141;28;20212;-84
2022/07/13 07:07:11;;;;;;;2.80;2.00;;;25.10;91.40;;;;;;4962583;28;20233;-84
2022/07/13 07:09:38;;;;;;;6.03;2.30;;;25.20;92.00;;;;;;4974365;28;20315;-84
2022/07/13 07:12:20;;;;;;;4.82;2.38;;;25.20;91.30;;;;;;4976361;28;20197;-84
2022/07/13 07:14:53;;;;;;;2.65;2.17;;;25.30;89.80;;;;;;4957667;28;20664;-84
2022/07/13 07:17:20;;;;;;;3.88;2.17;;;25.30;90.00;;;;;;4980272;28;20233;-83
2022/07/13 07:19:49;;;;;;;2.95;2.03;;;25.20;89.60;;;;;;4964728;28;20205;-83
2022/07/13 07:22:18;;;;;;;3.15;2.22;;;25.30;88.50;;;;;;4968650;28;20205;-84
2022/07/13 07:24:45;;;;;;;3.25;2.40;;;25.30;88.60;;;;;;4960401;28;20660;-83
2022/07/13 07:27:13;;;;;;;3.70;2.35;;;25.30;87.50;;;;;;4990776;28;20228;-84
2022/07/13 07:29:40;;;;;;;3.90;2.35;;;25.40;87.30;;;;;;4966092;28;20212;-84
2022/07/13 07:32:10;;;;;;;3.55;2.60;;;25.40;86.90;;;;;;4980953;28;20193;-84
2022/07/13 07:34:37;;;;;;;2.72;2.20;;;25.40;86.30;;;;;;4975833;28;20208;-84
2022/07/13 07:37:05;;;;;;;3.85;2.38;;;25.50;84.40;;;;;;4981780;28;20224;-84
2022/07/13 07:39:36;;;;;;;5.07;2.75;;;25.40;85.70;;;;;;4968595;28;20224;-84
2022/07/13 07:42:04;;;;;;;2.45;2.25;;;25.50;86.40;;;;;;4980547;28;20576;-85
2022/07/13 07:44:32;;;;;;;3.70;2.20;;;25.50;85.10;;;;;;4963305;28;20201;-84
2022/07/13 07:47:00;;;;;;;3.55;2.03;;;25.50;85.70;;;;;;4988158;28;20224;-84
2022/07/13 07:49:33;;;;;;;2.28;2.10;;;25.50;85.80;;;;;;4978473;28;20730;-84
2022/07/13 07:52:01;;;;;;;2.78;2.50;;;25.50;85.00;;;;;;4976589;28;20205;-84
2022/07/13 07:54:29;;;;;;;2.53;2.15;;;25.60;83.90;;;;;;4984396;28;20208;-84
2022/07/13 07:56:58;;;;;;;2.95;2.20;;;25.70;84.10;;;;;;4963610;28;20239;-83
2022/07/13 07:59:26;;;;;;;2.70;2.47;;;25.70;84.40;;;;;;4977838;28;20208;-84
2022/07/13 08:01:53;;;;;;;2.90;2.17;;;25.70;85.10;;;;;;4961642;28;20208;-84
2022/07/13 08:04:21;;;;;;;3.03;2.00;;;25.80;84.00;;;;;;4960301;28;20209;-84
2022/07/13 08:06:49;;;;;;;6.05;2.58;;;25.80;85.40;;;;;;4981529;28;20220;-84
2022/07/13 08:09:16;;;;;;;4.53;2.50;;;25.90;83.90;;;;;;4976826;28;20210;-84
2022/07/13 08:11:46;;;;;;;2.78;2.33;;;26.00;84.40;;;;;;4976027;28;20227;-84
2022/07/13 08:14:15;;;;;;;7.00;2.88;;;25.90;83.10;;;;;;4975401;28;20208;-84
2022/07/13 08:16:43;;;;;;;2.97;2.42;;;26.00;82.20;;;;;;4976155;28;20225;-84
2022/07/13 08:19:11;;;;;;;5.05;2.45;;;26.10;81.90;;;;;;4961868;28;20216;-84
2022/07/13 08:21:39;;;;;;;2.35;2.05;;;26.10;80.50;;;;;;4964803;28;20219;-84
2022/07/13 08:24:07;;;;;;;2.65;2.30;;;26.10;81.60;;;;;;4959846;28;20206;-84
2022/07/13 08:26:34;;;;;;;3.53;2.53;;;26.00;81.70;;;;;;4976243;28;20220;-84
2022/07/13 08:29:02;;;;;;;3.72;2.35;;;26.20;82.00;;;;;;4975702;28;20218;-84
2022/07/13 08:31:30;;;;;;;3.65;2.60;;;26.20;82.10;;;;;;4979148;28;20220;-84
2022/07/13 08:39:29;;;;;;;4.43;2.90;;;26.10;79.90;;;;;;4976600;28;20208;-84
2022/07/13 08:41:58;;;;;;;9.75;3.15;;;26.10;80.90;;;;;;4964766;28;20205;-84
2022/07/13 08:44:26;;;;;;;5.18;2.65;;;26.10;81.10;;;;;;4978944;28;20566;-84
2022/07/13 08:46:55;;;;;;;5.10;2.75;;;26.20;82.00;;;;;;4963443;28;20224;-84
2022/07/13 08:49:24;;;;;;;5.13;2.40;;;26.20;81.60;;;;;;4982944;28;20205;-84
2022/07/13 08:51:52;;;;;;;4.28;2.58;;;26.20;81.10;;;;;;4966740;28;20225;-84
2022/07/13 08:54:20;;;;;;;4.43;2.67;;;26.10;81.40;;;;;;4962859;28;20206;-84
2022/07/13 08:56:48;;;;;;;4.47;2.80;;;26.00;81.30;;;;;;4964903;28;20228;-84
2022/07/13 08:59:15;;;;;;;6.65;3.15;;;26.10;82.50;;;;;;4988143;28;20228;-84
2022/07/13 09:01:43;;;;;;;6.30;2.58;;;26.10;82.60;;;;;;4972357;28;20270;-86
2022/07/13 09:04:18;;;;;;;2.95;2.22;;;26.30;81.20;;;;;;4962071;28;20208;-81
2022/07/13 09:06:47;;;;;;;4.63;2.55;;;26.40;81.80;;;;;;4978441;28;20469;-82
2022/07/13 09:09:30;;;;;;;5.93;2.80;;;26.60;82.10;;;;;;4968026;28;20290;-81
2022/07/13 09:12:18;;;;;;;3.47;2.40;;;26.40;81.50;;;;;;4980380;28;20205;-81
2022/07/13 09:14:52;;;;;;;5.57;2.72;;;26.30;81.60;;;;;;4969179;28;20209;-81
2022/07/13 09:17:33;;;;;;;5.95;2.90;;;26.30;81.90;;;;;;4976798;28;20231;-81
2022/07/13 09:20:15;;;;;;;4.25;2.78;;;26.30;82.30;;;;;;4978832;28;20196;-81
2022/07/13 09:22:47;;;;;;;2.90;2.60;;;26.50;82.50;;;;;;4970242;28;20227;-81
2022/07/13 09:25:32;;;;;;;4.47;3.05;;;26.40;81.60;;;;;;4961420;28;20228;-81
2022/07/13 09:28:04;;;;;;;4.00;2.42;;;26.40;82.40;;;;;;4970152;28;20201;-81
2022/07/13 09:30:33;;;;;;;4.40;2.72;;;26.50;82.80;;;;;;4981000;28;20480;-81
2022/07/13 09:33:01;;;;;;;4.95;2.95;;;26.60;83.50;;;;;;4970786;28;20201;-81
2022/07/13 09:35:45;;;;;;;7.35;3.75;;;26.50;82.80;;;;;;4959704;28;20297;-81
2022/07/13 09:38:29;;;;;;;6.53;2.88;;;26.50;84.10;;;;;;4975407;28;20202;-81
2022/07/13 09:40:57;;;;;;;4.20;2.60;;;26.70;83.70;;;;;;4968375;28;20205;-81
2022/07/13 09:46:10;;;;;;;4.32;2.83;;;27.00;82.40;;;;;;4949794;28;20578;-81
2022/07/13 09:48:38;;;;;;;3.78;2.72;;;27.00;80.10;;;;;;4970032;28;20205;-82
2022/07/13 09:51:07;;;;;;;3.97;2.53;;;27.00;79.20;;;;;;4976226;28;20216;-82
2022/07/13 09:53:36;;;;;;;4.88;2.63;;;27.10;80.80;;;;;;4960159;28;20697;-82
2022/07/13 09:56:06;;;;;;;3.70;2.50;;;27.20;78.90;;;;;;4961015;28;20239;-82
2022/07/13 09:58:40;;;;;;;6.97;3.33;;;27.20;78.20;;;;;;4952058;28;20201;-82
2022/07/13 10:01:07;;;;;;;8.98;3.15;;;27.20;78.90;;;;;;4955844;28;20205;-82
2022/07/13 10:03:37;;;;;;;4.15;2.83;;;27.30;79.90;;;;;;4983097;28;20202;-82
2022/07/13 10:06:06;;;;;;;4.88;2.53;;;27.40;79.20;;;;;;4972570;28;20235;-82
2022/07/13 10:08:35;;;;;;;3.08;2.40;;;27.60;78.20;;;;;;4972483;28;20209;-81
2022/07/13 10:11:04;;;;;;;7.03;2.80;;;27.60;76.60;;;;;;4970486;28;20217;-81
2022/07/13 10:13:32;;;;;;;3.88;2.38;;;27.60;75.60;;;;;;4979948;28;20204;-82
2022/07/13 10:16:00;;;;;;;5.03;2.60;;;27.70;76.60;;;;;;4960427;28;20221;-82
2022/07/13 10:18:32;;;;;;;8.48;2.92;;;27.80;75.60;;;;;;4978271;28;20193;-82
2022/07/13 10:21:10;;;;;;;6.35;2.40;;;27.60;75.50;;;;;;4964663;28;20198;-82
2022/07/13 10:23:39;;;;;;;6.40;2.50;;;27.80;75.20;;;;;;4949603;28;20197;-82
2022/07/13 10:26:19;;;;;;;5.45;3.38;;;27.80;75.30;;;;;;4977877;28;20213;-82
2022/07/13 10:29:03;;;;;;;2.95;2.38;;;27.70;76.70;;;;;;4960327;28;20212;-82
2022/07/13 10:31:33;;;;;;;5.40;2.65;;;27.60;77.10;;;;;;4977360;28;20709;-82
2022/07/13 10:34:01;;;;;;;4.90;2.40;;;27.50;76.90;;;;;;4960058;28;20207;-82
2022/07/13 10:36:51;;;;;;;3.47;2.40;;;27.50;77.20;;;;;;4959608;28;20227;-82
2022/07/13 10:39:21;;;;;;;2.50;2.10;;;27.60;76.60;;;;;;4960667;28;20197;-82
2022/07/13 10:42:00;;;;;;;3.83;2.30;;;27.80;76.20;;;;;;4981256;28;20650;-82
2022/07/13 10:44:36;;;;;;;3.42;2.28;;;27.90;76.00;;;;;;4982275;28;20200;-82
2022/07/13 10:47:05;;;;;;;3.65;2.35;;;28.00;76.00;;;;;;4963816;28;20384;-82
2022/07/13 10:49:37;;;;;;;3.10;2.63;;;28.10;76.20;;;;;;4981394;28;20181;-82
2022/07/13 10:52:49;;;;;;;3.92;2.40;;;28.20;75.80;;;;;;4957656;28;20226;-82
2022/07/13 10:55:31;;;;;;;3.88;2.80;;;28.40;74.30;;;;;;4963827;28;20227;-81
2022/07/13 10:58:00;;;;;;;5.32;2.38;;;28.50;74.60;;;;;;4980704;28;20201;-82
2022/07/13 11:00:42;;;;;;;6.20;2.58;;;28.80;72.80;;;;;;4964388;28;20550;-82
2022/07/13 11:03:27;;;;;;;4.18;2.60;;;28.80;72.10;;;;;;4965087;28;20200;-82
2022/07/13 11:06:05;;;;;;;4.63;2.70;;;28.50;72.60;;;;;;4963543;28;20228;-82
2022/07/13 11:08:33;;;;;;;2.90;2.40;;;28.30;73.00;;;;;;4967477;28;20204;-82
2022/07/13 11:11:13;;;;;;;3.22;2.22;;;28.20;74.10;;;;;;4978847;28;20200;-82
2022/07/13 11:13:42;;;;;;;3.38;2.78;;;28.10;74.20;;;;;;4972566;28;20220;-82
2022/07/13 11:16:09;;;;;;;5.40;2.50;;;28.20;75.80;;;;;;4980474;28;20221;-82
2022/07/13 11:18:38;;;;;;;4.00;2.30;;;28.10;74.30;;;;;;4964913;28;20223;-82
2022/07/13 11:21:09;;;;;;;4.47;2.47;;;28.00;74.80;;;;;;4963278;28;20208;-83
2022/07/13 11:26:52;;;;;;;3.80;2.55;;;28.00;75.50;;;;;;4980917;28;20217;-82
2022/07/13 11:29:23;;;;;;;5.00;3.00;;;27.90;76.20;;;;;;4969373;28;20200;-81
2022/07/13 11:31:55;;;;;;;3.13;2.63;;;27.80;76.80;;;;;;4991674;28;20225;-81
2022/07/13 11:34:23;;;;;;;5.50;2.75;;;27.80;77.50;;;;;;4993897;28;20189;-81
2022/07/13 11:36:51;;;;;;;5.40;3.25;;;27.80;78.30;;;;;;4994094;28;20209;-81
2022/07/13 11:39:23;;;;;;;4.80;2.20;;;27.80;77.90;;;;;;4994130;28;20200;-81
2022/07/13 11:41:53;;;;;;;4.93;2.53;;;27.80;78.40;;;;;;4983752;28;20197;-81
2022/07/13 11:44:23;;;;;;;3.05;2.10;;;27.90;78.20;;;;;;4976020;28;20191;-81
2022/07/13 11:46:51;;;;;;;4.15;2.33;;;27.80;76.90;;;;;;4991904;28;20592;-81
2022/07/13 11:49:18;;;;;;;5.45;2.35;;;27.80;77.80;;;;;;4974449;28;20197;-81
2022/07/13 11:51:46;;;;;;;2.90;2.50;;;27.90;77.90;;;;;;4971570;28;20231;-81
2022/07/13 11:54:16;;;;;;;3.03;2.45;;;28.00;77.70;;;;;;4974101;28;20679;-81
2022/07/13 11:56:48;;;;;;;2.85;2.10;;;28.40;77.00;;;;;;4974713;28;20237;-81
2022/07/13 11:59:35;;;;;;;2.53;2.10;;;28.60;74.80;;;;;;4974342;28;20209;-81
2022/07/13 12:02:03;;;;;;;4.63;2.33;;;28.70;74.20;;;;;;4969539;28;20578;-81
2022/07/13 12:04:31;;;;;;;4.05;2.67;;;28.80;73.90;;;;;;4982930;28;20201;-81
2022/07/13 12:07:11;;;;;;;4.90;2.60;;;29.00;74.50;;;;;;4973220;28;20249;-81
2022/07/13 12:09:46;;;;;;;4.10;2.72;;;28.90;73.20;;;;;;4972275;28;20197;-81
2022/07/13 12:12:14;;;;;;;5.03;2.72;;;28.80;73.30;;;;;;4986760;28;20197;-81
2022/07/13 12:14:44;;;;;;;4.60;2.47;;;28.70;74.30;;;;;;4988852;28;20207;-81
2022/07/13 12:17:11;;;;;;;6.35;2.95;;;28.80;74.00;;;;;;4992149;28;20231;-81
2022/07/13 12:19:38;;;;;;;3.65;2.53;;;28.80;72.00;;;;;;4992466;28;20205;-81
2022/07/13 12:22:07;;;;;;;3.85;2.90;;;28.60;71.60;;;;;;4990103;28;20204;-81
2022/07/13 12:24:36;;;;;;;4.45;2.67;;;28.60;74.10;;;;;;4979959;28;20209;-81
2022/07/13 12:27:04;;;;;;;3.35;2.60;;;28.60;74.70;;;;;;4974562;28;20227;-81
2022/07/13 12:29:32;;;;;;;3.83;2.67;;;28.50;75.60;;;;;;4966897;28;20201;-81
2022/07/13 12:32:03;;;;;;;4.50;2.70;;;28.60;75.30;;;;;;4990525;28;20213;-81
2022/07/13 12:34:30;;;;;;;3.05;2.55;;;28.50;75.90;;;;;;4973876;28;20205;-81
2022/07/13 12:36:58;;;;;;;3.60;3.05;;;28.50;75.30;;;;;;4981323;28;20217;-81
2022/07/13 12:39:35;;;;;;;5.05;3.10;;;28.60;74.90;;;;;;4972324;28;20217;-81
2022/07/13 12:42:03;;;;;;;5.82;2.90;;;28.60;74.20;;;;;;4968038;28;20192;-81
2022/07/13 12:44:31;;;;;;;4.43;3.20;;;28.50;74.40;;;;;;4978666;28;20205;-81
2022/07/13 12:47:01;;;;;;;2.70;2.50;;;28.50;72.30;;;;;;4994847;28;20221;-81
2022/07/13 12:49:35;;;;;;;4.10;2.88;;;28.50;70.00;;;;;;4975796;28;20211;-81
2022/07/13 12:52:05;;;;;;;5.18;2.65;;;28.70;69.60;;;;;;4971036;28;20200;-81
2022/07/13 12:54:47;;;;;;;3.72;3.10;;;29.10;69.20;;;;;;4973599;28;20212;-81
2022/07/13 12:57:16;;;;;;;3.00;2.70;;;29.10;67.70;;;;;;4969836;28;20243;-81
2022/07/13 13:00:01;;;;;;;5.55;2.78;;;28.80;68.90;;;;;;4972452;28;20201;-81
2022/07/13 13:02:30;;;;;;;3.35;3.05;;;28.70;70.80;;;;;;4964577;28;20644;-81
2022/07/13 13:04:58;;;;;;;4.82;3.05;;;28.70;70.30;;;;;;4997409;28;20203;-81
2022/07/13 13:07:25;;;;;;;4.72;3.47;;;28.80;69.50;;;;;;4991092;28;20217;-81
2022/07/13 13:09:53;;;;;;;3.80;2.92;;;29.10;70.80;;;;;;4973221;28;20211;-81
2022/07/13 13:12:21;;;;;;;4.65;2.50;;;29.20;70.70;;;;;;4972678;28;20224;-81